createdAt,value
2022-09-06T00:01:24.530Z,20.73
2022-09-06T00:03:51.358Z,20.76
2022-09-06T00:06:20.079Z,20.79
2022-09-06T00:08:48.118Z,20.90
2022-09-06T00:11:16.242Z,20.96
2022-09-06T00:13:43.809Z,20.97
2022-09-06T00:16:16.727Z,20.92
2022-09-06T00:18:44.180Z,20.95
2022-09-06T00:21:29.146Z,20.93
2022-09-06T00:23:56.095Z,20.93
2022-09-06T00:26:23.217Z,20.96
2022-09-06T00:28:50.016Z,21.04
2022-09-06T00:31:20.138Z,21.05
2022-09-06T00:33:46.901Z,21.09
2022-09-06T00:36:13.850Z,21.04
2022-09-06T00:38:41.463Z,21.01
2022-09-06T00:41:09.715Z,21.04
2022-09-06T00:43:36.999Z,21.00
2022-09-06T00:46:05.100Z,21.01
2022-09-06T00:48:32.095Z,20.97
2022-09-06T00:51:03.793Z,20.86
2022-09-06T00:53:31.146Z,20.92
2022-09-06T00:55:57.982Z,20.90
2022-09-06T00:58:25.659Z,20.81
2022-09-06T01:00:52.495Z,20.77
2022-09-06T01:03:20.055Z,20.84
2022-09-06T01:06:08.519Z,20.91
2022-09-06T01:08:38.031Z,20.92
2022-09-06T01:11:33.424Z,20.90
2022-09-06T01:14:12.247Z,20.85
2022-09-06T01:17:04.953Z,20.84
2022-09-06T01:20:12.746Z,20.81
2022-09-06T01:23:07.035Z,20.76
2022-09-06T01:25:44.256Z,20.72
2022-09-06T01:28:28.190Z,20.66
2022-09-06T01:31:33.267Z,20.58
2022-09-06T01:34:06.406Z,20.50
2022-09-06T01:36:45.814Z,20.46
2022-09-06T01:39:32.441Z,20.36
2022-09-06T01:42:07.033Z,20.24
2022-09-06T01:44:34.674Z,20.09
2022-09-06T01:47:32.289Z,20.00
2022-09-06T01:50:09.925Z,19.97
2022-09-06T01:53:27.511Z,19.95
2022-09-06T01:56:18.422Z,19.85
2022-09-06T01:59:12.824Z,19.82
2022-09-06T02:02:10.266Z,19.85
2022-09-06T02:04:39.826Z,19.83
2022-09-06T02:07:18.678Z,19.81
2022-09-06T02:09:54.849Z,19.86
2022-09-06T02:12:24.308Z,19.86
2022-09-06T02:14:58.911Z,19.79
2022-09-06T02:17:30.944Z,19.68
2022-09-06T02:20:15.949Z,19.67
2022-09-06T02:22:45.377Z,19.67
2022-09-06T02:25:18.823Z,19.61
2022-09-06T02:27:45.711Z,19.58
2022-09-06T02:30:12.574Z,19.65
2022-09-06T02:32:44.836Z,19.59
2022-09-06T02:35:15.765Z,19.55
2022-09-06T02:37:43.498Z,19.57
2022-09-06T02:40:11.119Z,19.59
2022-09-06T02:42:38.657Z,19.66
2022-09-06T02:45:05.677Z,19.73
2022-09-06T02:47:32.435Z,19.80
2022-09-06T02:49:59.238Z,19.80
2022-09-06T02:52:25.906Z,19.83
2022-09-06T02:54:52.670Z,19.86
2022-09-06T02:57:19.356Z,19.86
2022-09-06T02:59:46.342Z,19.84
2022-09-06T03:02:13.139Z,19.80
2022-09-06T03:04:39.930Z,19.70
2022-09-06T03:07:06.610Z,19.72
2022-09-06T03:09:33.349Z,19.76
2022-09-06T03:12:00.024Z,19.76
2022-09-06T03:14:26.763Z,19.72
2022-09-06T03:16:53.629Z,19.66
2022-09-06T03:19:21.659Z,19.63
2022-09-06T03:21:48.470Z,19.59
2022-09-06T03:24:15.195Z,19.54
2022-09-06T03:26:41.959Z,19.52
2022-09-06T03:29:08.642Z,19.51
2022-09-06T03:31:35.435Z,19.50
2022-09-06T03:34:02.126Z,19.52
2022-09-06T03:36:29.706Z,19.54
2022-09-06T03:38:56.422Z,19.55
2022-09-06T03:41:23.127Z,19.55
2022-09-06T03:43:49.782Z,19.54
2022-09-06T03:46:16.567Z,19.50
2022-09-06T03:48:43.358Z,19.45
2022-09-06T03:51:10.090Z,19.47
2022-09-06T03:53:36.822Z,19.49
2022-09-06T03:56:03.789Z,19.53
2022-09-06T03:58:32.195Z,19.51
2022-09-06T04:01:07.947Z,19.50
2022-09-06T04:03:35.336Z,19.53
2022-09-06T04:06:02.498Z,19.56
2022-09-06T04:08:30.158Z,19.55
2022-09-06T04:10:57.610Z,19.50
2022-09-06T04:13:27.344Z,19.44
2022-09-06T04:15:54.033Z,19.44
2022-09-06T04:18:21.575Z,19.44
2022-09-06T04:20:50.022Z,19.48
2022-09-06T04:23:17.337Z,19.52
2022-09-06T04:25:50.324Z,19.53
2022-09-06T04:28:18.544Z,19.54
2022-09-06T04:30:46.389Z,19.48
2022-09-06T04:33:13.105Z,19.44
2022-09-06T04:35:39.823Z,19.43
2022-09-06T04:38:06.578Z,19.38
2022-09-06T04:40:33.307Z,19.37
2022-09-06T04:43:00.078Z,19.43
2022-09-06T04:45:26.801Z,19.38
2022-09-06T04:47:53.671Z,19.43
2022-09-06T04:50:20.351Z,19.45
2022-09-06T04:52:48.044Z,19.46
2022-09-06T04:55:14.889Z,19.47
2022-09-06T04:57:45.792Z,19.47
2022-09-06T05:00:14.555Z,19.53
2022-09-06T05:02:41.293Z,19.60
2022-09-06T05:05:08.566Z,19.61
2022-09-06T05:07:35.216Z,19.67
2022-09-06T05:10:02.274Z,19.72
2022-09-06T05:12:28.971Z,19.74
2022-09-06T05:14:56.908Z,19.81
2022-09-06T05:17:23.724Z,19.84
2022-09-06T05:19:50.461Z,19.88
2022-09-06T05:22:17.371Z,19.92
2022-09-06T05:24:44.242Z,19.94
2022-09-06T05:27:12.691Z,19.94
2022-09-06T05:29:39.439Z,19.91
2022-09-06T05:32:06.379Z,19.81
2022-09-06T05:34:33.159Z,19.74
2022-09-06T05:36:59.797Z,19.75
2022-09-06T05:39:26.562Z,19.73
2022-09-06T05:41:53.291Z,19.78
2022-09-06T05:44:25.656Z,19.76
2022-09-06T05:46:53.634Z,19.84
2022-09-06T05:49:20.375Z,20.01
2022-09-06T05:51:51.573Z,20.20
2022-09-06T05:54:18.264Z,20.38
2022-09-06T05:56:44.992Z,20.49
2022-09-06T05:59:11.720Z,20.56
2022-09-06T06:01:50.657Z,20.60
2022-09-06T06:04:22.418Z,20.62
2022-09-06T06:06:50.094Z,20.73
2022-09-06T06:09:23.661Z,20.81
2022-09-06T06:11:51.107Z,20.78
2022-09-06T06:14:17.797Z,20.72
2022-09-06T06:16:44.850Z,20.82
2022-09-06T06:19:11.743Z,20.91
2022-09-06T06:21:39.217Z,21.02
2022-09-06T06:24:06.367Z,21.13
2022-09-06T06:26:35.959Z,21.15
2022-09-06T06:29:03.631Z,21.28
2022-09-06T06:31:31.903Z,21.37
2022-09-06T06:33:59.452Z,21.37
2022-09-06T06:36:31.169Z,21.46
2022-09-06T06:38:58.813Z,21.62
2022-09-06T06:41:27.063Z,21.79
2022-09-06T06:43:59.466Z,21.94
2022-09-06T06:46:28.514Z,22.09
2022-09-06T06:48:55.476Z,22.21
2022-09-06T06:51:27.187Z,22.28
2022-09-06T06:53:54.486Z,22.43
2022-09-06T06:56:28.414Z,22.51
2022-09-06T06:58:57.672Z,22.61
2022-09-06T07:01:26.531Z,22.85
2022-09-06T07:03:54.487Z,23.12
2022-09-06T07:06:21.844Z,23.26
2022-09-06T07:08:49.218Z,23.04
2022-09-06T07:11:19.482Z,22.81
2022-09-06T07:13:48.369Z,22.90
2022-09-06T07:16:19.188Z,22.97
2022-09-06T07:18:46.283Z,23.19
2022-09-06T07:24:05.516Z,23.33
2022-09-06T07:26:33.401Z,23.44
2022-09-06T07:29:01.463Z,23.55
2022-09-06T07:34:17.678Z,23.67
2022-09-06T07:36:44.399Z,23.69
2022-09-06T07:39:11.163Z,23.70
2022-09-06T07:41:37.872Z,23.70
2022-09-06T07:44:04.609Z,23.74
2022-09-06T07:46:31.331Z,23.79
2022-09-06T07:48:58.145Z,23.84
2022-09-06T07:51:24.898Z,23.81
2022-09-06T07:54:12.810Z,23.84
2022-09-06T07:56:42.195Z,23.86
2022-09-06T07:59:09.303Z,23.86
2022-09-06T08:01:37.937Z,23.91
2022-09-06T08:04:15.611Z,23.99
2022-09-06T08:09:35.477Z,23.95
2022-09-06T08:12:06.978Z,23.91
2022-09-06T08:14:34.608Z,23.89
2022-09-06T08:17:02.214Z,23.89
2022-09-06T08:19:28.971Z,24.04
2022-09-06T08:21:56.164Z,24.14
2022-09-06T08:24:22.920Z,24.22
2022-09-06T08:26:49.859Z,24.30
2022-09-06T08:29:16.655Z,24.39
2022-09-06T08:31:44.444Z,24.47
2022-09-06T08:34:15.225Z,24.53
2022-09-06T08:36:42.670Z,24.60
2022-09-06T08:39:10.320Z,24.66
2022-09-06T08:42:06.505Z,24.72
2022-09-06T08:45:03.093Z,24.79
2022-09-06T08:47:21.470Z,24.86
2022-09-06T08:49:53.094Z,24.97
2022-09-06T08:52:28.441Z,25.13
2022-09-06T08:55:22.963Z,25.23
2022-09-06T08:58:07.801Z,25.32
2022-09-06T09:00:35.634Z,25.37
2022-09-06T09:03:21.102Z,25.49
2022-09-06T09:05:52.315Z,25.58
2022-09-06T09:08:44.999Z,25.66
2022-09-06T09:11:22.476Z,25.71
2022-09-06T09:14:04.389Z,25.77
2022-09-06T09:16:32.149Z,25.85
2022-09-06T09:19:01.686Z,25.99
2022-09-06T09:21:32.262Z,26.17
2022-09-06T09:24:03.611Z,26.34
2022-09-06T09:26:45.244Z,26.38
2022-09-06T09:29:13.793Z,26.37
2022-09-06T09:31:42.462Z,26.43
2022-09-06T09:34:12.445Z,26.44
2022-09-06T09:36:40.101Z,26.46
2022-09-06T09:39:11.191Z,26.56
2022-09-06T09:41:40.456Z,26.74
2022-09-06T09:44:16.653Z,26.91
2022-09-06T09:46:43.834Z,27.12
2022-09-06T09:49:25.034Z,27.27
2022-09-06T09:52:06.777Z,27.37
2022-09-06T09:54:38.368Z,27.34
2022-09-06T09:57:11.820Z,27.29
2022-09-06T09:59:54.260Z,27.17
2022-09-06T10:02:29.016Z,27.11
2022-09-06T10:05:15.980Z,27.10
2022-09-06T10:07:51.458Z,27.15
2022-09-06T10:10:25.128Z,27.17
2022-09-06T10:13:31.732Z,27.27
2022-09-06T10:15:59.691Z,27.27
2022-09-06T10:18:35.960Z,27.21
2022-09-06T10:21:06.582Z,27.08
2022-09-06T10:26:56.850Z,27.33
2022-09-06T10:29:32.793Z,27.49
2022-09-06T10:32:31.128Z,27.67
2022-09-06T10:35:24.143Z,27.88
2022-09-06T10:38:18.630Z,28.06
2022-09-06T10:41:07.777Z,28.24
2022-09-06T10:44:18.166Z,28.42
2022-09-06T10:46:48.672Z,28.48
2022-09-06T10:49:19.554Z,28.43
2022-09-06T10:52:00.349Z,28.38
2022-09-06T10:54:30.734Z,28.39
2022-09-06T10:57:03.719Z,28.39
2022-09-06T10:59:41.982Z,28.39
2022-09-06T11:02:17.957Z,28.39
2022-09-06T11:07:38.136Z,28.41
2022-09-06T11:10:22.179Z,28.48
2022-09-06T11:12:54.647Z,28.52
2022-09-06T11:15:23.015Z,28.54
2022-09-06T11:17:58.430Z,28.56
2022-09-06T11:20:39.479Z,28.54
2022-09-06T11:23:38.009Z,28.51
2022-09-06T11:26:17.587Z,28.41
2022-09-06T11:28:48.658Z,28.30
2022-09-06T11:34:28.418Z,28.19
2022-09-06T11:36:57.319Z,28.24
2022-09-06T11:42:46.406Z,28.42
2022-09-06T11:45:22.621Z,28.45
2022-09-06T11:47:51.270Z,28.49
2022-09-06T11:50:20.954Z,28.52
2022-09-06T11:53:06.463Z,28.56
2022-09-06T11:55:46.589Z,28.48
2022-09-06T11:58:20.929Z,28.43
2022-09-06T12:01:28.171Z,28.37
2022-09-06T12:04:06.507Z,28.27
2022-09-06T12:06:39.687Z,28.18
2022-09-06T12:09:29.545Z,28.09
2022-09-06T12:11:56.699Z,28.12
2022-09-06T12:14:52.836Z,27.99
2022-09-06T12:17:20.651Z,27.97
2022-09-06T12:20:06.113Z,27.96
2022-09-06T12:22:35.284Z,27.93
2022-09-06T12:25:23.903Z,27.98
2022-09-06T12:27:54.071Z,28.22
2022-09-06T12:30:43.366Z,28.56
2022-09-06T12:33:20.878Z,29.06
2022-09-06T12:36:05.822Z,29.54
2022-09-06T12:38:34.353Z,29.84
2022-09-06T12:41:01.951Z,30.07
2022-09-06T12:43:29.653Z,30.31
2022-09-06T12:45:56.520Z,30.47
2022-09-06T12:48:35.406Z,30.69
2022-09-06T12:51:06.266Z,30.83
2022-09-06T12:53:34.908Z,30.90
2022-09-06T12:56:07.654Z,30.87
2022-09-06T12:58:35.717Z,30.87
2022-09-06T13:01:16.146Z,30.90
2022-09-06T13:03:56.359Z,30.93
2022-09-06T13:06:27.159Z,30.91
2022-09-06T13:08:57.004Z,30.72
2022-09-06T13:11:31.495Z,30.70
2022-09-06T13:13:58.593Z,30.87
2022-09-06T13:16:28.321Z,30.98
2022-09-06T13:18:55.062Z,31.20
2022-09-06T13:21:32.870Z,31.43
2022-09-06T13:24:03.858Z,31.54
2022-09-06T13:26:38.785Z,31.51
2022-09-06T13:29:17.596Z,31.46
2022-09-06T13:31:52.359Z,31.37
2022-09-06T13:34:24.546Z,31.30
2022-09-06T13:36:53.978Z,31.22
2022-09-06T13:39:53.267Z,31.02
2022-09-06T13:42:31.610Z,30.81
2022-09-06T13:45:01.924Z,30.76
2022-09-06T13:47:29.830Z,30.76
2022-09-06T13:49:56.635Z,30.76
2022-09-06T13:52:23.442Z,30.72
2022-09-06T13:54:50.159Z,30.68
2022-09-06T13:57:19.994Z,30.61
2022-09-06T13:59:50.268Z,30.65
2022-09-06T14:02:19.562Z,30.64
2022-09-06T14:04:46.345Z,30.61
2022-09-06T14:07:13.114Z,30.66
2022-09-06T14:09:39.967Z,30.50
2022-09-06T14:12:06.947Z,30.44
2022-09-06T14:14:34.379Z,30.12
2022-09-06T14:17:01.156Z,30.10
2022-09-06T14:19:28.819Z,30.20
2022-09-06T14:21:55.472Z,30.11
2022-09-06T14:24:22.309Z,30.26
2022-09-06T14:26:49.327Z,30.48
2022-09-06T14:29:16.365Z,30.67
2022-09-06T14:31:43.102Z,30.83
2022-09-06T14:34:09.891Z,30.81
2022-09-06T14:36:36.673Z,30.88
2022-09-06T14:39:04.151Z,30.96
2022-09-06T14:41:31.165Z,31.07
2022-09-06T14:43:58.737Z,31.04
2022-09-06T14:46:27.551Z,31.01
2022-09-06T14:49:07.184Z,31.04
2022-09-06T14:51:34.733Z,30.94
2022-09-06T14:54:07.307Z,30.86
2022-09-06T14:56:34.458Z,30.70
2022-09-06T14:59:01.189Z,30.71
2022-09-06T15:01:34.123Z,30.73
2022-09-06T15:04:05.640Z,30.78
2022-09-06T15:06:33.543Z,30.72
2022-09-06T15:09:00.721Z,30.75
2022-09-06T15:11:39.462Z,30.64
2022-09-06T15:14:15.441Z,30.51
2022-09-06T15:16:42.900Z,30.45
2022-09-06T15:19:10.271Z,30.56
2022-09-06T15:21:37.106Z,30.94
2022-09-06T15:24:07.328Z,31.41
2022-09-06T15:26:36.654Z,31.97
2022-09-06T15:29:03.583Z,32.18
2022-09-06T15:31:34.079Z,31.88
2022-09-06T15:34:02.753Z,38.43
2022-09-06T15:36:29.953Z,44.60
2022-09-06T15:39:01.266Z,49.55
2022-09-06T15:41:30.910Z,53.60
2022-09-06T15:44:01.938Z,56.40
2022-09-06T15:46:36.383Z,58.25
2022-09-06T15:49:07.301Z,59.96
2022-09-06T15:51:35.350Z,60.26
2022-09-06T15:54:02.022Z,61.32
2022-09-06T15:56:28.651Z,61.27
2022-09-06T15:58:55.313Z,60.56
2022-09-06T16:01:22.762Z,58.48
2022-09-06T16:03:55.118Z,58.82
2022-09-06T16:06:27.789Z,58.96
2022-09-06T16:09:07.386Z,60.05
2022-09-06T16:11:36.607Z,60.76
2022-09-06T16:14:09.586Z,60.80
2022-09-06T16:16:37.030Z,59.63
2022-09-06T16:19:03.981Z,59.11
2022-09-06T16:21:32.375Z,59.04
2022-09-06T16:24:09.402Z,58.95
2022-09-06T16:26:38.447Z,58.83
2022-09-06T16:29:06.973Z,58.64
2022-09-06T16:31:39.702Z,58.54
2022-09-06T16:34:10.953Z,58.05
2022-09-06T16:36:37.945Z,56.85
2022-09-06T16:39:04.900Z,54.37
2022-09-06T16:41:37.560Z,52.08
2022-09-06T16:44:04.574Z,51.90
2022-09-06T16:46:31.503Z,51.32
2022-09-06T16:49:05.973Z,50.93
2022-09-06T16:51:32.931Z,46.79
2022-09-06T16:54:00.680Z,47.17
2022-09-06T16:56:31.945Z,42.98
2022-09-06T16:59:00.254Z,39.56
2022-09-06T17:01:28.314Z,37.01
2022-09-06T17:03:55.562Z,35.00
2022-09-06T17:06:23.142Z,33.56
2022-09-06T17:08:50.918Z,32.44
2022-09-06T17:11:20.594Z,31.60
2022-09-06T17:13:49.457Z,30.88
2022-09-06T17:16:35.866Z,30.25
2022-09-06T17:19:04.306Z,29.56
2022-09-06T17:21:31.539Z,29.16
2022-09-06T17:24:01.888Z,28.85
2022-09-06T17:26:29.207Z,28.49
2022-09-06T17:28:57.116Z,28.07
2022-09-06T17:31:25.942Z,27.68
2022-09-06T17:33:53.660Z,27.35
2022-09-06T17:36:25.161Z,27.09
2022-09-06T17:38:54.171Z,26.78
2022-09-06T17:41:21.918Z,26.53
2022-09-06T17:43:48.958Z,26.30
2022-09-06T17:46:16.226Z,26.02
2022-09-06T17:48:43.595Z,25.75
2022-09-06T17:51:11.694Z,25.52
2022-09-06T17:53:39.097Z,25.30
2022-09-06T17:56:07.718Z,25.14
2022-09-06T17:58:36.684Z,24.94
2022-09-06T18:01:12.056Z,24.76
2022-09-06T18:03:41.310Z,24.60
2022-09-06T18:06:10.889Z,24.50
2022-09-06T18:08:40.048Z,24.45
2022-09-06T18:11:27.604Z,24.31
2022-09-06T18:13:56.863Z,24.24
2022-09-06T18:16:24.939Z,24.15
2022-09-06T18:18:57.230Z,23.98
2022-09-06T18:21:26.394Z,23.78
2022-09-06T18:23:56.114Z,23.68
2022-09-06T18:26:24.013Z,23.66
2022-09-06T18:28:52.934Z,23.62
2022-09-06T18:31:23.207Z,23.50
2022-09-06T18:33:50.803Z,23.37
2022-09-06T18:36:18.642Z,23.30
2022-09-06T18:38:46.221Z,23.27
2022-09-06T18:41:35.194Z,23.27
2022-09-06T18:44:03.773Z,23.26
2022-09-06T18:46:32.718Z,23.25
2022-09-06T18:49:00.086Z,23.23
2022-09-06T18:51:27.701Z,23.22
2022-09-06T18:53:57.348Z,23.20
2022-09-06T18:56:25.030Z,23.21
2022-09-06T18:59:02.294Z,23.19
2022-09-06T19:01:30.418Z,23.17
2022-09-06T19:03:58.681Z,23.19
2022-09-06T19:06:28.363Z,23.22
2022-09-06T19:08:59.459Z,23.25
2022-09-06T19:11:26.618Z,23.25
2022-09-06T19:13:55.075Z,23.24
2022-09-06T19:16:23.306Z,23.17
2022-09-06T19:18:51.013Z,23.11
2022-09-06T19:21:22.175Z,23.17
2022-09-06T19:23:59.237Z,23.19
2022-09-06T19:26:28.588Z,23.15
2022-09-06T19:29:17.877Z,23.07
2022-09-06T19:31:46.459Z,22.96
2022-09-06T19:34:15.666Z,22.91
2022-09-06T19:36:44.805Z,22.88
2022-09-06T19:39:15.600Z,22.85
2022-09-06T19:41:44.959Z,22.85
2022-09-06T19:44:11.798Z,22.86
2022-09-06T19:46:43.719Z,22.93
2022-09-06T19:49:12.725Z,22.94
2022-09-06T19:51:39.825Z,22.86
2022-09-06T19:54:06.619Z,22.78
2022-09-06T19:56:34.829Z,22.77
2022-09-06T19:59:07.347Z,22.76
2022-09-06T20:01:35.491Z,22.76
2022-09-06T20:04:05.052Z,22.79
2022-09-06T20:06:31.987Z,22.79
2022-09-06T20:08:59.970Z,22.74
2022-09-06T20:11:28.829Z,22.69
2022-09-06T20:13:56.020Z,22.68
2022-09-06T20:16:26.775Z,22.59
2022-09-06T20:18:59.047Z,22.55
2022-09-06T20:21:27.087Z,22.49
2022-09-06T20:23:55.578Z,22.45
2022-09-06T20:26:23.957Z,22.46
2022-09-06T20:28:55.894Z,22.55
2022-09-06T20:31:23.189Z,22.63
2022-09-06T20:33:50.112Z,22.70
2022-09-06T20:36:17.986Z,22.73
2022-09-06T20:38:45.887Z,22.69
2022-09-06T20:41:15.465Z,22.62
2022-09-06T20:43:42.578Z,22.61
2022-09-06T20:46:20.049Z,22.64
2022-09-06T20:48:47.250Z,22.69
2022-09-06T20:51:18.748Z,22.71
2022-09-06T20:53:48.113Z,22.71
2022-09-06T20:56:19.282Z,22.70
2022-09-06T20:58:53.962Z,22.65
2022-09-06T21:01:22.968Z,22.60
2022-09-06T21:03:54.507Z,22.52
2022-09-06T21:06:21.922Z,22.35
2022-09-06T21:08:49.691Z,22.22
2022-09-06T21:11:16.936Z,22.13
2022-09-06T21:13:43.906Z,22.07
2022-09-06T21:16:11.059Z,22.08
2022-09-06T21:18:37.838Z,22.01
2022-09-06T21:21:06.694Z,21.97
2022-09-06T21:23:36.770Z,21.97
2022-09-06T21:26:10.158Z,21.97
2022-09-06T21:28:39.778Z,21.95
2022-09-06T21:31:14.971Z,21.92
2022-09-06T21:33:43.677Z,21.83
2022-09-06T21:36:12.438Z,21.74
2022-09-06T21:38:40.861Z,21.60
2022-09-06T21:41:08.910Z,21.52
2022-09-06T21:43:36.046Z,21.55
2022-09-06T21:46:07.423Z,21.59
2022-09-06T21:48:38.622Z,21.63
2022-09-06T21:51:09.933Z,21.69
2022-09-06T21:53:37.542Z,21.69
2022-09-06T21:56:05.398Z,21.62
2022-09-06T21:58:33.030Z,21.58
2022-09-06T22:01:01.340Z,21.57
2022-09-06T22:03:30.303Z,21.54
2022-09-06T22:05:57.662Z,21.56
2022-09-06T22:08:25.425Z,21.55
2022-09-06T22:10:52.307Z,21.54
2022-09-06T22:13:20.402Z,21.53
2022-09-06T22:15:47.366Z,21.44
2022-09-06T22:18:14.089Z,21.42
2022-09-06T22:20:40.831Z,21.42
2022-09-06T22:23:08.442Z,21.38
2022-09-06T22:25:35.276Z,21.33
2022-09-06T22:28:02.157Z,21.29
2022-09-06T22:30:28.900Z,21.22
2022-09-06T22:32:55.976Z,21.24
2022-09-06T22:35:22.691Z,21.25
2022-09-06T22:37:49.323Z,21.20
2022-09-06T22:40:16.182Z,21.17
2022-09-06T22:42:43.409Z,21.21
2022-09-06T22:45:10.370Z,21.20
2022-09-06T22:47:37.065Z,21.12
2022-09-06T22:50:04.093Z,21.07
2022-09-06T22:52:30.769Z,21.12
2022-09-06T22:54:57.533Z,21.14
2022-09-06T22:57:25.672Z,21.14
2022-09-06T22:59:52.384Z,21.14
2022-09-06T23:02:19.030Z,21.14
2022-09-06T23:04:46.411Z,21.15
2022-09-06T23:07:13.123Z,21.21
2022-09-06T23:09:39.954Z,21.18
2022-09-06T23:12:06.922Z,21.17
2022-09-06T23:14:33.706Z,21.13
2022-09-06T23:17:00.395Z,21.12
2022-09-06T23:19:27.214Z,21.18
2022-09-06T23:21:53.858Z,21.22
2022-09-06T23:24:20.653Z,21.27
2022-09-06T23:26:47.385Z,21.34
2022-09-06T23:29:14.354Z,21.38
2022-09-06T23:31:42.635Z,21.42
2022-09-06T23:34:09.405Z,21.47
2022-09-06T23:36:36.143Z,21.43
2022-09-06T23:39:02.969Z,21.17
2022-09-06T23:41:30.057Z,21.13
2022-09-06T23:43:57.474Z,21.25
2022-09-06T23:46:24.171Z,21.37
2022-09-06T23:48:50.998Z,21.45
2022-09-06T23:51:17.805Z,21.49
2022-09-06T23:53:44.915Z,21.48
2022-09-06T23:56:11.722Z,21.46
2022-09-06T23:58:38.592Z,21.53
